sensor_id;sensor_type;location;lat;lon;timestamp;P1;durP1;ratioP1;P2;durP2;ratioP2
32946;SDS011;54465;51.230;22.504;2022-09-21T00:01:38;5.75;;;5.15;;
32946;SDS011;54465;51.230;22.504;2022-09-21T00:04:41;8.35;;;4.72;;
32946;SDS011;54465;51.230;22.504;2022-09-21T00:07:43;6.22;;;5.32;;
32946;SDS011;54465;51.230;22.504;2022-09-21T00:10:48;9.60;;;6.70;;
32946;SDS011;54465;51.230;22.504;2022-09-21T00:13:51;13.05;;;9.68;;
32946;SDS011;54465;51.230;22.504;2022-09-21T00:16:56;16.58;;;10.15;;
32946;SDS011;54465;51.230;22.504;2022-09-21T00:19:58;13.93;;;10.35;;
32946;SDS011;54465;51.230;22.504;2022-09-21T00:23:03;16.05;;;10.88;;
32946;SDS011;54465;51.230;22.504;2022-09-21T00:26:06;20.02;;;13.55;;
32946;SDS011;54465;51.230;22.504;2022-09-21T00:29:09;18.77;;;15.18;;
32946;SDS011;54465;51.230;22.504;2022-09-21T00:32:14;20.42;;;16.15;;
32946;SDS011;54465;51.230;22.504;2022-09-21T00:35:17;24.92;;;17.50;;
32946;SDS011;54465;51.230;22.504;2022-09-21T00:38:23;28.52;;;19.10;;
32946;SDS011;54465;51.230;22.504;2022-09-21T00:41:26;27.25;;;18.80;;
32946;SDS011;54465;51.230;22.504;2022-09-21T00:44:31;24.27;;;17.98;;
32946;SDS011;54465;51.230;22.504;2022-09-21T00:47:37;24.23;;;17.45;;
32946;SDS011;54465;51.230;22.504;2022-09-21T00:50:43;23.45;;;16.30;;
32946;SDS011;54465;51.230;22.504;2022-09-21T00:53:50;24.70;;;16.37;;
32946;SDS011;54465;51.230;22.504;2022-09-21T00:56:57;23.83;;;16.90;;
32946;SDS011;54465;51.230;22.504;2022-09-21T01:00:04;23.58;;;16.73;;
32946;SDS011;54465;51.230;22.504;2022-09-21T01:03:11;23.93;;;15.20;;
32946;SDS011;54465;51.230;22.504;2022-09-21T01:06:14;22.23;;;15.10;;
32946;SDS011;54465;51.230;22.504;2022-09-21T01:09:23;24.30;;;16.13;;
32946;SDS011;54465;51.230;22.504;2022-09-21T01:12:29;24.63;;;15.40;;
32946;SDS011;54465;51.230;22.504;2022-09-21T01:15:45;22.85;;;14.88;;
32946;SDS011;54465;51.230;22.504;2022-09-21T01:18:59;28.60;;;15.57;;
32946;SDS011;54465;51.230;22.504;2022-09-21T01:22:07;25.40;;;15.68;;
32946;SDS011;54465;51.230;22.504;2022-09-21T01:25:20;34.42;;;14.60;;
32946;SDS011;54465;51.230;22.504;2022-09-21T01:28:36;21.98;;;12.73;;
32946;SDS011;54465;51.230;22.504;2022-09-21T01:32:03;28.20;;;12.93;;
32946;SDS011;54465;51.230;22.504;2022-09-21T01:35:12;40.58;;;13.77;;
32946;SDS011;54465;51.230;22.504;2022-09-21T01:38:20;66.50;;;13.65;;
32946;SDS011;54465;51.230;22.504;2022-09-21T01:41:26;41.70;;;12.67;;
32946;SDS011;54465;51.230;22.504;2022-09-21T01:44:30;95.80;;;14.45;;
32946;SDS011;54465;51.230;22.504;2022-09-21T01:47:44;56.50;;;13.98;;
32946;SDS011;54465;51.230;22.504;2022-09-21T01:54:01;85.85;;;14.10;;
32946;SDS011;54465;51.230;22.504;2022-09-21T01:57:07;60.40;;;14.57;;
32946;SDS011;54465;51.230;22.504;2022-09-21T02:00:16;49.00;;;14.38;;
32946;SDS011;54465;51.230;22.504;2022-09-21T02:03:20;33.20;;;12.73;;
32946;SDS011;54465;51.230;22.504;2022-09-21T02:06:27;72.88;;;15.45;;
32946;SDS011;54465;51.230;22.504;2022-09-21T02:09:31;61.72;;;14.27;;
32946;SDS011;54465;51.230;22.504;2022-09-21T02:12:35;78.68;;;14.85;;
32946;SDS011;54465;51.230;22.504;2022-09-21T02:15:43;59.15;;;15.15;;
32946;SDS011;54465;51.230;22.504;2022-09-21T02:18:56;73.38;;;14.63;;
32946;SDS011;54465;51.230;22.504;2022-09-21T02:22:12;54.22;;;14.52;;
32946;SDS011;54465;51.230;22.504;2022-09-21T02:25:27;46.83;;;13.82;;
32946;SDS011;54465;51.230;22.504;2022-09-21T02:28:36;89.22;;;19.13;;
32946;SDS011;54465;51.230;22.504;2022-09-21T02:31:46;69.90;;;16.67;;
32946;SDS011;54465;51.230;22.504;2022-09-21T02:34:56;67.83;;;15.23;;
32946;SDS011;54465;51.230;22.504;2022-09-21T02:38:07;71.32;;;15.80;;
32946;SDS011;54465;51.230;22.504;2022-09-21T02:41:17;80.72;;;15.50;;
32946;SDS011;54465;51.230;22.504;2022-09-21T02:44:27;59.70;;;15.20;;
32946;SDS011;54465;51.230;22.504;2022-09-21T02:47:33;66.30;;;14.68;;
32946;SDS011;54465;51.230;22.504;2022-09-21T02:50:43;87.53;;;14.98;;
32946;SDS011;54465;51.230;22.504;2022-09-21T02:53:48;53.30;;;14.02;;
32946;SDS011;54465;51.230;22.504;2022-09-21T02:56:52;67.00;;;14.80;;
32946;SDS011;54465;51.230;22.504;2022-09-21T02:59:56;52.40;;;14.82;;
32946;SDS011;54465;51.230;22.504;2022-09-21T03:02:59;62.28;;;14.73;;
32946;SDS011;54465;51.230;22.504;2022-09-21T03:06:03;60.45;;;13.98;;
32946;SDS011;54465;51.230;22.504;2022-09-21T03:09:06;54.08;;;13.27;;
32946;SDS011;54465;51.230;22.504;2022-09-21T03:12:08;63.03;;;15.20;;
32946;SDS011;54465;51.230;22.504;2022-09-21T03:15:10;65.60;;;14.93;;
32946;SDS011;54465;51.230;22.504;2022-09-21T03:18:16;67.95;;;16.70;;
32946;SDS011;54465;51.230;22.504;2022-09-21T03:21:20;89.35;;;15.52;;
32946;SDS011;54465;51.230;22.504;2022-09-21T03:24:22;105.22;;;16.65;;
32946;SDS011;54465;51.230;22.504;2022-09-21T03:27:46;46.10;;;14.27;;
32946;SDS011;54465;51.230;22.504;2022-09-21T03:30:49;59.03;;;14.00;;
32946;SDS011;54465;51.230;22.504;2022-09-21T03:33:52;52.03;;;14.88;;
32946;SDS011;54465;51.230;22.504;2022-09-21T03:36:56;46.22;;;13.75;;
32946;SDS011;54465;51.230;22.504;2022-09-21T03:39:58;52.30;;;14.80;;
32946;SDS011;54465;51.230;22.504;2022-09-21T03:43:02;59.75;;;14.35;;
32946;SDS011;54465;51.230;22.504;2022-09-21T03:46:05;59.10;;;15.32;;
32946;SDS011;54465;51.230;22.504;2022-09-21T03:49:09;72.30;;;17.88;;
32946;SDS011;54465;51.230;22.504;2022-09-21T03:52:14;60.47;;;13.90;;
32946;SDS011;54465;51.230;22.504;2022-09-21T03:55:17;61.40;;;16.10;;
32946;SDS011;54465;51.230;22.504;2022-09-21T03:58:19;63.22;;;16.00;;
32946;SDS011;54465;51.230;22.504;2022-09-21T04:01:23;71.30;;;15.25;;
32946;SDS011;54465;51.230;22.504;2022-09-21T04:04:26;65.90;;;14.70;;
32946;SDS011;54465;51.230;22.504;2022-09-21T04:07:31;82.93;;;19.23;;
32946;SDS011;54465;51.230;22.504;2022-09-21T04:10:35;93.13;;;19.58;;
32946;SDS011;54465;51.230;22.504;2022-09-21T04:13:37;99.57;;;20.65;;
32946;SDS011;54465;51.230;22.504;2022-09-21T04:16:40;112.25;;;20.83;;
32946;SDS011;54465;51.230;22.504;2022-09-21T04:19:43;97.55;;;22.05;;
32946;SDS011;54465;51.230;22.504;2022-09-21T04:22:46;126.05;;;23.13;;
32946;SDS011;54465;51.230;22.504;2022-09-21T04:25:49;135.93;;;24.65;;
32946;SDS011;54465;51.230;22.504;2022-09-21T04:28:52;131.13;;;26.33;;
32946;SDS011;54465;51.230;22.504;2022-09-21T04:31:56;115.25;;;23.92;;
32946;SDS011;54465;51.230;22.504;2022-09-21T04:34:59;106.13;;;22.67;;
32946;SDS011;54465;51.230;22.504;2022-09-21T04:38:03;110.07;;;22.17;;
32946;SDS011;54465;51.230;22.504;2022-09-21T04:41:06;135.13;;;26.27;;
32946;SDS011;54465;51.230;22.504;2022-09-21T04:44:09;100.45;;;22.20;;
32946;SDS011;54465;51.230;22.504;2022-09-21T04:47:11;149.10;;;24.60;;
32946;SDS011;54465;51.230;22.504;2022-09-21T04:50:14;115.88;;;23.75;;
32946;SDS011;54465;51.230;22.504;2022-09-21T04:53:21;125.50;;;24.52;;
32946;SDS011;54465;51.230;22.504;2022-09-21T04:56:24;111.40;;;21.08;;
32946;SDS011;54465;51.230;22.504;2022-09-21T04:59:26;107.47;;;21.52;;
32946;SDS011;54465;51.230;22.504;2022-09-21T05:02:29;108.10;;;22.48;;
32946;SDS011;54465;51.230;22.504;2022-09-21T05:05:31;114.68;;;21.63;;
32946;SDS011;54465;51.230;22.504;2022-09-21T05:08:36;101.80;;;20.08;;
32946;SDS011;54465;51.230;22.504;2022-09-21T05:11:55;81.85;;;17.75;;
32946;SDS011;54465;51.230;22.504;2022-09-21T05:15:01;74.50;;;17.63;;
32946;SDS011;54465;51.230;22.504;2022-09-21T05:18:04;60.45;;;15.75;;
32946;SDS011;54465;51.230;22.504;2022-09-21T05:21:11;77.25;;;18.02;;
32946;SDS011;54465;51.230;22.504;2022-09-21T05:24:17;60.22;;;15.20;;
32946;SDS011;54465;51.230;22.504;2022-09-21T05:27:19;55.33;;;14.48;;
32946;SDS011;54465;51.230;22.504;2022-09-21T05:30:22;77.80;;;16.75;;
32946;SDS011;54465;51.230;22.504;2022-09-21T05:33:25;63.85;;;14.88;;
32946;SDS011;54465;51.230;22.504;2022-09-21T05:36:34;55.95;;;15.43;;
32946;SDS011;54465;51.230;22.504;2022-09-21T05:39:45;67.45;;;16.73;;
32946;SDS011;54465;51.230;22.504;2022-09-21T05:42:48;67.65;;;17.23;;
32946;SDS011;54465;51.230;22.504;2022-09-21T05:45:52;92.85;;;19.15;;
32946;SDS011;54465;51.230;22.504;2022-09-21T05:48:59;74.25;;;18.98;;
32946;SDS011;54465;51.230;22.504;2022-09-21T05:52:16;98.63;;;21.45;;
32946;SDS011;54465;51.230;22.504;2022-09-21T05:55:28;128.82;;;24.92;;
32946;SDS011;54465;51.230;22.504;2022-09-21T05:58:42;164.73;;;28.17;;
32946;SDS011;54465;51.230;22.504;2022-09-21T06:01:55;162.32;;;28.88;;
32946;SDS011;54465;51.230;22.504;2022-09-21T06:08:42;132.05;;;26.00;;
32946;SDS011;54465;51.230;22.504;2022-09-21T06:11:49;122.25;;;24.63;;
32946;SDS011;54465;51.230;22.504;2022-09-21T06:14:51;105.75;;;20.67;;
32946;SDS011;54465;51.230;22.504;2022-09-21T06:17:57;85.03;;;19.45;;
32946;SDS011;54465;51.230;22.504;2022-09-21T06:21:00;77.65;;;17.88;;
32946;SDS011;54465;51.230;22.504;2022-09-21T06:24:03;72.43;;;17.90;;
32946;SDS011;54465;51.230;22.504;2022-09-21T06:27:09;68.10;;;17.50;;
32946;SDS011;54465;51.230;22.504;2022-09-21T06:30:13;75.70;;;19.08;;
32946;SDS011;54465;51.230;22.504;2022-09-21T06:33:16;66.15;;;16.65;;
32946;SDS011;54465;51.230;22.504;2022-09-21T06:36:28;44.45;;;14.80;;
32946;SDS011;54465;51.230;22.504;2022-09-21T06:39:30;63.57;;;17.20;;
32946;SDS011;54465;51.230;22.504;2022-09-21T06:42:34;71.13;;;18.00;;
32946;SDS011;54465;51.230;22.504;2022-09-21T06:45:59;65.63;;;16.75;;
32946;SDS011;54465;51.230;22.504;2022-09-21T06:49:10;56.65;;;14.27;;
32946;SDS011;54465;51.230;22.504;2022-09-21T06:52:12;57.63;;;15.48;;
32946;SDS011;54465;51.230;22.504;2022-09-21T06:55:20;56.33;;;16.40;;
32946;SDS011;54465;51.230;22.504;2022-09-21T06:58:26;56.05;;;14.35;;
32946;SDS011;54465;51.230;22.504;2022-09-21T07:01:30;57.65;;;14.48;;
32946;SDS011;54465;51.230;22.504;2022-09-21T07:04:35;48.90;;;15.07;;
32946;SDS011;54465;51.230;22.504;2022-09-21T07:07:44;44.25;;;14.48;;
32946;SDS011;54465;51.230;22.504;2022-09-21T07:10:47;45.33;;;14.75;;
32946;SDS011;54465;51.230;22.504;2022-09-21T07:13:51;50.92;;;14.75;;
32946;SDS011;54465;51.230;22.504;2022-09-21T07:16:54;39.80;;;14.00;;
32946;SDS011;54465;51.230;22.504;2022-09-21T07:19:56;46.15;;;14.63;;
32946;SDS011;54465;51.230;22.504;2022-09-21T07:22:59;41.47;;;13.15;;
32946;SDS011;54465;51.230;22.504;2022-09-21T07:26:10;41.45;;;13.85;;
32946;SDS011;54465;51.230;22.504;2022-09-21T07:29:21;42.22;;;13.05;;
32946;SDS011;54465;51.230;22.504;2022-09-21T07:32:23;37.75;;;13.75;;
32946;SDS011;54465;51.230;22.504;2022-09-21T07:35:26;43.08;;;13.55;;
32946;SDS011;54465;51.230;22.504;2022-09-21T07:38:31;40.67;;;13.73;;
32946;SDS011;54465;51.230;22.504;2022-09-21T07:41:35;34.28;;;12.30;;
32946;SDS011;54465;51.230;22.504;2022-09-21T07:44:43;41.30;;;12.88;;
32946;SDS011;54465;51.230;22.504;2022-09-21T07:47:46;27.10;;;10.95;;
32946;SDS011;54465;51.230;22.504;2022-09-21T07:50:49;34.10;;;13.35;;
32946;SDS011;54465;51.230;22.504;2022-09-21T07:53:53;30.05;;;12.00;;
32946;SDS011;54465;51.230;22.504;2022-09-21T07:57:02;32.53;;;12.65;;
32946;SDS011;54465;51.230;22.504;2022-09-21T08:00:24;24.63;;;11.93;;
32946;SDS011;54465;51.230;22.504;2022-09-21T08:03:28;29.67;;;11.95;;
32946;SDS011;54465;51.230;22.504;2022-09-21T08:06:32;25.05;;;11.35;;
32946;SDS011;54465;51.230;22.504;2022-09-21T08:09:35;19.55;;;9.65;;
32946;SDS011;54465;51.230;22.504;2022-09-21T08:12:39;23.05;;;10.77;;
32946;SDS011;54465;51.230;22.504;2022-09-21T08:15:45;19.23;;;9.45;;
32946;SDS011;54465;51.230;22.504;2022-09-21T08:18:48;21.08;;;10.27;;
32946;SDS011;54465;51.230;22.504;2022-09-21T08:21:51;19.73;;;9.68;;
32946;SDS011;54465;51.230;22.504;2022-09-21T08:24:57;19.40;;;9.23;;
32946;SDS011;54465;51.230;22.504;2022-09-21T08:28:04;19.42;;;9.40;;
32946;SDS011;54465;51.230;22.504;2022-09-21T08:31:08;15.05;;;9.68;;
32946;SDS011;54465;51.230;22.504;2022-09-21T08:34:14;15.13;;;8.60;;
32946;SDS011;54465;51.230;22.504;2022-09-21T08:37:17;13.30;;;7.32;;
32946;SDS011;54465;51.230;22.504;2022-09-21T08:40:31;10.75;;;7.55;;
32946;SDS011;54465;51.230;22.504;2022-09-21T08:43:35;11.88;;;7.55;;
32946;SDS011;54465;51.230;22.504;2022-09-21T08:46:43;11.02;;;7.32;;
32946;SDS011;54465;51.230;22.504;2022-09-21T08:49:50;11.07;;;7.50;;
32946;SDS011;54465;51.230;22.504;2022-09-21T08:53:03;10.88;;;7.35;;
32946;SDS011;54465;51.230;22.504;2022-09-21T08:56:10;11.10;;;6.90;;
32946;SDS011;54465;51.230;22.504;2022-09-21T08:59:14;12.27;;;7.47;;
32946;SDS011;54465;51.230;22.504;2022-09-21T09:02:30;8.02;;;6.65;;
32946;SDS011;54465;51.230;22.504;2022-09-21T09:05:51;8.93;;;6.03;;
32946;SDS011;54465;51.230;22.504;2022-09-21T09:09:02;6.18;;;4.43;;
32946;SDS011;54465;51.230;22.504;2022-09-21T09:12:24;4.38;;;3.78;;
32946;SDS011;54465;51.230;22.504;2022-09-21T09:15:46;4.82;;;4.32;;
32946;SDS011;54465;51.230;22.504;2022-09-21T09:19:05;3.80;;;3.25;;
32946;SDS011;54465;51.230;22.504;2022-09-21T09:22:20;4.70;;;4.20;;
32946;SDS011;54465;51.230;22.504;2022-09-21T09:25:31;4.63;;;3.88;;
32946;SDS011;54465;51.230;22.504;2022-09-21T09:28:40;4.97;;;4.00;;
32946;SDS011;54465;51.230;22.504;2022-09-21T09:31:51;5.30;;;4.77;;
32946;SDS011;54465;51.230;22.504;2022-09-21T09:34:59;7.68;;;5.30;;
32946;SDS011;54465;51.230;22.504;2022-09-21T09:38:08;6.30;;;5.15;;
32946;SDS011;54465;51.230;22.504;2022-09-21T09:52:05;4.70;;;4.10;;
32946;SDS011;54465;51.230;22.504;2022-09-21T09:55:16;4.70;;;3.75;;
32946;SDS011;54465;51.230;22.504;2022-09-21T10:01:42;5.18;;;3.65;;
32946;SDS011;54465;51.230;22.504;2022-09-21T10:04:53;4.78;;;3.30;;
32946;SDS011;54465;51.230;22.504;2022-09-21T10:08:04;5.40;;;3.42;;
32946;SDS011;54465;51.230;22.504;2022-09-21T10:11:07;3.70;;;2.95;;
32946;SDS011;54465;51.230;22.504;2022-09-21T10:14:13;3.05;;;2.75;;
32946;SDS011;54465;51.230;22.504;2022-09-21T10:17:20;3.85;;;3.35;;
32946;SDS011;54465;51.230;22.504;2022-09-21T10:20:25;3.10;;;2.83;;
32946;SDS011;54465;51.230;22.504;2022-09-21T10:23:32;3.33;;;2.67;;
32946;SDS011;54465;51.230;22.504;2022-09-21T10:26:40;3.15;;;2.85;;
32946;SDS011;54465;51.230;22.504;2022-09-21T10:29:46;4.38;;;3.67;;
32946;SDS011;54465;51.230;22.504;2022-09-21T10:32:53;5.00;;;3.78;;
32946;SDS011;54465;51.230;22.504;2022-09-21T10:35:58;4.80;;;3.83;;
32946;SDS011;54465;51.230;22.504;2022-09-21T10:39:11;5.97;;;4.80;;
32946;SDS011;54465;51.230;22.504;2022-09-21T10:42:20;6.10;;;4.50;;
32946;SDS011;54465;51.230;22.504;2022-09-21T10:45:27;5.15;;;4.15;;
32946;SDS011;54465;51.230;22.504;2022-09-21T10:48:36;4.78;;;2.25;;
32946;SDS011;54465;51.230;22.504;2022-09-21T10:51:45;3.15;;;2.28;;
32946;SDS011;54465;51.230;22.504;2022-09-21T10:54:53;2.25;;;1.90;;
32946;SDS011;54465;51.230;22.504;2022-09-21T10:57:56;19.83;;;7.50;;
32946;SDS011;54465;51.230;22.504;2022-09-21T11:01:09;4.95;;;2.90;;
32946;SDS011;54465;51.230;22.504;2022-09-21T11:04:14;3.72;;;2.55;;
32946;SDS011;54465;51.230;22.504;2022-09-21T11:07:21;5.77;;;2.57;;
32946;SDS011;54465;51.230;22.504;2022-09-21T11:10:32;5.68;;;3.95;;
32946;SDS011;54465;51.230;22.504;2022-09-21T11:13:43;6.43;;;3.55;;
32946;SDS011;54465;51.230;22.504;2022-09-21T11:16:53;5.20;;;4.18;;
32946;SDS011;54465;51.230;22.504;2022-09-21T11:20:02;4.93;;;4.20;;
32946;SDS011;54465;51.230;22.504;2022-09-21T11:23:12;6.40;;;4.43;;
32946;SDS011;54465;51.230;22.504;2022-09-21T11:26:26;5.65;;;4.65;;
32946;SDS011;54465;51.230;22.504;2022-09-21T11:29:35;6.30;;;4.90;;
32946;SDS011;54465;51.230;22.504;2022-09-21T11:32:54;5.93;;;4.43;;
32946;SDS011;54465;51.230;22.504;2022-09-21T11:36:12;6.00;;;4.40;;
32946;SDS011;54465;51.230;22.504;2022-09-21T11:39:24;4.53;;;3.22;;
32946;SDS011;54465;51.230;22.504;2022-09-21T11:42:46;5.75;;;4.07;;
32946;SDS011;54465;51.230;22.504;2022-09-21T11:46:05;7.45;;;3.60;;
32946;SDS011;54465;51.230;22.504;2022-09-21T11:49:22;3.95;;;2.75;;
32946;SDS011;54465;51.230;22.504;2022-09-21T11:52:40;5.43;;;1.90;;
32946;SDS011;54465;51.230;22.504;2022-09-21T11:55:54;2.35;;;2.13;;
32946;SDS011;54465;51.230;22.504;2022-09-21T11:59:25;2.60;;;2.40;;
32946;SDS011;54465;51.230;22.504;2022-09-21T12:06:02;3.55;;;2.75;;
32946;SDS011;54465;51.230;22.504;2022-09-21T12:09:24;4.93;;;3.67;;
32946;SDS011;54465;51.230;22.504;2022-09-21T12:12:50;4.38;;;3.40;;
32946;SDS011;54465;51.230;22.504;2022-09-21T12:16:01;4.20;;;3.60;;
32946;SDS011;54465;51.230;22.504;2022-09-21T12:19:08;6.03;;;3.88;;
32946;SDS011;54465;51.230;22.504;2022-09-21T12:22:20;5.03;;;4.05;;
32946;SDS011;54465;51.230;22.504;2022-09-21T12:25:26;4.22;;;3.80;;
32946;SDS011;54465;51.230;22.504;2022-09-21T12:28:36;5.28;;;3.90;;
32946;SDS011;54465;51.230;22.504;2022-09-21T12:31:46;3.70;;;3.35;;
32946;SDS011;54465;51.230;22.504;2022-09-21T12:34:58;3.60;;;3.28;;
32946;SDS011;54465;51.230;22.504;2022-09-21T12:38:05;3.85;;;3.45;;
32946;SDS011;54465;51.230;22.504;2022-09-21T12:41:13;3.10;;;2.80;;
32946;SDS011;54465;51.230;22.504;2022-09-21T12:44:21;3.65;;;2.60;;
32946;SDS011;54465;51.230;22.504;2022-09-21T12:47:35;4.22;;;3.70;;
32946;SDS011;54465;51.230;22.504;2022-09-21T12:50:46;3.40;;;3.10;;
32946;SDS011;54465;51.230;22.504;2022-09-21T12:53:51;3.22;;;2.92;;
32946;SDS011;54465;51.230;22.504;2022-09-21T12:57:03;3.63;;;2.50;;
32946;SDS011;54465;51.230;22.504;2022-09-21T13:00:13;2.95;;;2.70;;
32946;SDS011;54465;51.230;22.504;2022-09-21T13:03:23;2.65;;;2.30;;
32946;SDS011;54465;51.230;22.504;2022-09-21T13:06:44;3.13;;;2.40;;
32946;SDS011;54465;51.230;22.504;2022-09-21T13:10:13;4.00;;;2.30;;
32946;SDS011;54465;51.230;22.504;2022-09-21T13:13:22;2.47;;;2.13;;
32946;SDS011;54465;51.230;22.504;2022-09-21T13:16:29;2.13;;;2.00;;
32946;SDS011;54465;51.230;22.504;2022-09-21T13:19:39;2.45;;;2.17;;
32946;SDS011;54465;51.230;22.504;2022-09-21T13:22:41;2.35;;;2.08;;
32946;SDS011;54465;51.230;22.504;2022-09-21T13:25:57;2.83;;;1.95;;
32946;SDS011;54465;51.230;22.504;2022-09-21T13:32:26;5.75;;;2.53;;
32946;SDS011;54465;51.230;22.504;2022-09-21T13:36:03;2.78;;;2.15;;
32946;SDS011;54465;51.230;22.504;2022-09-21T13:39:29;1.98;;;1.80;;
32946;SDS011;54465;51.230;22.504;2022-09-21T13:42:46;2.33;;;2.13;;
32946;SDS011;54465;51.230;22.504;2022-09-21T13:45:53;2.20;;;2.00;;
32946;SDS011;54465;51.230;22.504;2022-09-21T13:49:00;2.92;;;2.10;;
32946;SDS011;54465;51.230;22.504;2022-09-21T13:52:32;3.35;;;2.28;;
32946;SDS011;54465;51.230;22.504;2022-09-21T13:55:46;3.67;;;2.03;;
32946;SDS011;54465;51.230;22.504;2022-09-21T13:58:56;2.75;;;2.25;;
32946;SDS011;54465;51.230;22.504;2022-09-21T14:02:00;2.70;;;1.95;;
32946;SDS011;54465;51.230;22.504;2022-09-21T14:05:16;1.80;;;1.70;;
32946;SDS011;54465;51.230;22.504;2022-09-21T14:08:31;4.65;;;2.30;;
32946;SDS011;54465;51.230;22.504;2022-09-21T14:11:41;5.28;;;3.25;;
32946;SDS011;54465;51.230;22.504;2022-09-21T14:18:21;4.00;;;2.30;;
32946;SDS011;54465;51.230;22.504;2022-09-21T14:21:37;2.63;;;2.05;;
32946;SDS011;54465;51.230;22.504;2022-09-21T14:24:42;2.10;;;1.90;;
32946;SDS011;54465;51.230;22.504;2022-09-21T14:27:50;3.17;;;2.00;;
32946;SDS011;54465;51.230;22.504;2022-09-21T14:30:58;3.58;;;2.10;;
32946;SDS011;54465;51.230;22.504;2022-09-21T14:34:04;1.15;;;0.90;;
32946;SDS011;54465;51.230;22.504;2022-09-21T14:37:19;3.13;;;1.30;;
32946;SDS011;54465;51.230;22.504;2022-09-21T14:40:38;2.03;;;1.70;;
32946;SDS011;54465;51.230;22.504;2022-09-21T14:43:48;1.50;;;1.30;;
32946;SDS011;54465;51.230;22.504;2022-09-21T14:47:05;1.83;;;1.23;;
32946;SDS011;54465;51.230;22.504;2022-09-21T14:50:46;1.88;;;1.50;;
32946;SDS011;54465;51.230;22.504;2022-09-21T14:54:02;2.72;;;2.15;;
32946;SDS011;54465;51.230;22.504;2022-09-21T14:57:30;2.60;;;1.92;;
32946;SDS011;54465;51.230;22.504;2022-09-21T15:00:51;3.67;;;2.60;;
32946;SDS011;54465;51.230;22.504;2022-09-21T15:03:58;4.32;;;2.78;;
32946;SDS011;54465;51.230;22.504;2022-09-21T15:07:19;6.05;;;3.65;;
32946;SDS011;54465;51.230;22.504;2022-09-21T15:10:52;6.22;;;3.17;;
32946;SDS011;54465;51.230;22.504;2022-09-21T15:14:14;4.90;;;3.08;;
32946;SDS011;54465;51.230;22.504;2022-09-21T15:17:22;4.80;;;2.90;;
32946;SDS011;54465;51.230;22.504;2022-09-21T15:20:27;3.53;;;2.25;;
32946;SDS011;54465;51.230;22.504;2022-09-21T15:23:33;3.45;;;2.70;;
32946;SDS011;54465;51.230;22.504;2022-09-21T15:26:40;4.65;;;2.67;;
32946;SDS011;54465;51.230;22.504;2022-09-21T15:29:53;5.93;;;3.20;;
32946;SDS011;54465;51.230;22.504;2022-09-21T15:32:57;3.30;;;2.47;;
32946;SDS011;54465;51.230;22.504;2022-09-21T15:36:01;7.93;;;3.50;;
32946;SDS011;54465;51.230;22.504;2022-09-21T15:39:05;3.03;;;2.72;;
32946;SDS011;54465;51.230;22.504;2022-09-21T15:42:28;3.75;;;2.63;;
32946;SDS011;54465;51.230;22.504;2022-09-21T15:45:33;4.97;;;3.20;;
32946;SDS011;54465;51.230;22.504;2022-09-21T15:48:46;7.78;;;5.78;;
32946;SDS011;54465;51.230;22.504;2022-09-21T15:51:51;10.82;;;6.30;;
32946;SDS011;54465;51.230;22.504;2022-09-21T15:54:59;8.13;;;5.40;;
32946;SDS011;54465;51.230;22.504;2022-09-21T15:58:13;5.82;;;4.00;;
32946;SDS011;54465;51.230;22.504;2022-09-21T16:01:38;8.07;;;5.00;;
32946;SDS011;54465;51.230;22.504;2022-09-21T16:04:46;9.85;;;6.45;;
32946;SDS011;54465;51.230;22.504;2022-09-21T16:08:03;6.18;;;4.50;;
32946;SDS011;54465;51.230;22.504;2022-09-21T16:11:17;5.38;;;4.10;;
32946;SDS011;54465;51.230;22.504;2022-09-21T16:14:26;4.95;;;3.53;;
32946;SDS011;54465;51.230;22.504;2022-09-21T16:17:54;5.38;;;3.85;;
32946;SDS011;54465;51.230;22.504;2022-09-21T16:21:08;4.75;;;3.15;;
32946;SDS011;54465;51.230;22.504;2022-09-21T16:24:20;6.68;;;3.10;;
32946;SDS011;54465;51.230;22.504;2022-09-21T16:27:23;6.15;;;3.60;;
32946;SDS011;54465;51.230;22.504;2022-09-21T16:30:45;5.82;;;3.50;;
32946;SDS011;54465;51.230;22.504;2022-09-21T16:34:01;4.22;;;2.70;;
32946;SDS011;54465;51.230;22.504;2022-09-21T16:40:29;2.80;;;2.47;;
32946;SDS011;54465;51.230;22.504;2022-09-21T16:43:31;5.55;;;3.45;;
32946;SDS011;54465;51.230;22.504;2022-09-21T16:46:34;3.83;;;3.25;;
32946;SDS011;54465;51.230;22.504;2022-09-21T16:49:40;4.22;;;3.20;;
32946;SDS011;54465;51.230;22.504;2022-09-21T16:52:42;4.25;;;3.38;;
32946;SDS011;54465;51.230;22.504;2022-09-21T16:55:48;4.65;;;3.17;;
32946;SDS011;54465;51.230;22.504;2022-09-21T16:58:53;5.03;;;3.17;;
32946;SDS011;54465;51.230;22.504;2022-09-21T17:01:59;5.35;;;2.70;;
32946;SDS011;54465;51.230;22.504;2022-09-21T17:05:08;5.13;;;3.58;;
32946;SDS011;54465;51.230;22.504;2022-09-21T17:08:12;5.03;;;3.35;;
32946;SDS011;54465;51.230;22.504;2022-09-21T17:11:16;4.57;;;3.08;;
32946;SDS011;54465;51.230;22.504;2022-09-21T17:14:21;5.57;;;3.92;;
32946;SDS011;54465;51.230;22.504;2022-09-21T17:17:24;6.18;;;4.05;;
32946;SDS011;54465;51.230;22.504;2022-09-21T17:20:31;5.20;;;4.20;;
32946;SDS011;54465;51.230;22.504;2022-09-21T17:23:36;6.50;;;4.50;;
32946;SDS011;54465;51.230;22.504;2022-09-21T17:26:38;6.78;;;4.57;;
32946;SDS011;54465;51.230;22.504;2022-09-21T17:29:44;6.85;;;4.13;;
32946;SDS011;54465;51.230;22.504;2022-09-21T17:32:49;6.03;;;4.10;;
32946;SDS011;54465;51.230;22.504;2022-09-21T17:35:53;7.97;;;4.43;;
32946;SDS011;54465;51.230;22.504;2022-09-21T17:38:59;9.52;;;5.68;;
32946;SDS011;54465;51.230;22.504;2022-09-21T17:42:03;9.88;;;6.03;;
32946;SDS011;54465;51.230;22.504;2022-09-21T17:45:14;8.38;;;5.15;;
32946;SDS011;54465;51.230;22.504;2022-09-21T17:48:21;14.25;;;6.57;;
32946;SDS011;54465;51.230;22.504;2022-09-21T17:51:30;8.68;;;6.57;;
32946;SDS011;54465;51.230;22.504;2022-09-21T17:54:50;10.35;;;6.72;;
32946;SDS011;54465;51.230;22.504;2022-09-21T17:57:56;9.20;;;6.13;;
32946;SDS011;54465;51.230;22.504;2022-09-21T18:01:06;9.13;;;5.82;;
32946;SDS011;54465;51.230;22.504;2022-09-21T18:04:15;7.40;;;5.28;;
32946;SDS011;54465;51.230;22.504;2022-09-21T18:07:20;8.18;;;5.68;;
32946;SDS011;54465;51.230;22.504;2022-09-21T18:10:24;10.13;;;5.43;;
32946;SDS011;54465;51.230;22.504;2022-09-21T18:13:32;7.95;;;5.15;;
32946;SDS011;54465;51.230;22.504;2022-09-21T18:16:43;8.00;;;6.00;;
32946;SDS011;54465;51.230;22.504;2022-09-21T18:19:57;8.55;;;5.57;;
32946;SDS011;54465;51.230;22.504;2022-09-21T18:23:16;8.73;;;5.75;;
32946;SDS011;54465;51.230;22.504;2022-09-21T18:26:25;8.38;;;5.78;;
32946;SDS011;54465;51.230;22.504;2022-09-21T18:29:29;8.30;;;5.65;;
32946;SDS011;54465;51.230;22.504;2022-09-21T18:32:39;8.23;;;6.05;;
32946;SDS011;54465;51.230;22.504;2022-09-21T18:35:53;8.13;;;5.85;;
32946;SDS011;54465;51.230;22.504;2022-09-21T18:39:08;8.45;;;6.07;;
32946;SDS011;54465;51.230;22.504;2022-09-21T18:42:23;15.85;;;9.80;;
32946;SDS011;54465;51.230;22.504;2022-09-21T18:45:33;12.57;;;8.77;;
32946;SDS011;54465;51.230;22.504;2022-09-21T18:48:43;13.43;;;8.55;;
32946;SDS011;54465;51.230;22.504;2022-09-21T18:51:53;11.77;;;8.30;;
32946;SDS011;54465;51.230;22.504;2022-09-21T18:55:10;11.07;;;7.18;;
32946;SDS011;54465;51.230;22.504;2022-09-21T18:58:18;10.00;;;6.15;;